My Meet Scores
Khloe Dudick, GymNasti - MyMeetScores.com
Top100 | Top Teams | Upcoming Meets | Completed Meets | Latest | Add Scores | Help| Support | Bookmark and Share

Khloe Dudick, GymNasti
Personal Bests
LevelVault BarsBeamFloorAA
39.4509.450 9.4509.45037.800
49.3759.575 9.7759.60037.875
79.2509.475 9.5509.52537.675
88.4008.575 9.4259.05034.925
Meet Scores
Date Meet Team Session Level Division Vault Bars Beam Floor AA
2020-02-14 Midwest Open GymNasti 03 8 Junior A 8.250 9 8.575 14 9.050 8T 9.050 12 34.925 12
2020-01-10 St Jude Benefit Meet GymNasti 9C 8 Jr A 8.400 11 8.000 11 9.425 7 9.050 12 34.875 11
2019-12-13 2019 St Nick GymNasti 3 8 JrA 8.225 8 8.400 10 8.775 5 8.625 10 34.025 8
2019-03-29 Illinois Level 7 & 8 State Meet GymNasti 6 7 Jr A 9.250 8T 9.350 10T 9.550 4 9.525 8 37.675 4T
2019-02-15 Women's Midwest Open GymNasti 02 7 Junior A 8.175 16T 8.950 10 9.500 1T 9.100 8 35.725 8
2019-02-08 IGI Chicago Style 2019 GymNasti 22 7 421 Rush L7 A 8.550 16 9.475 7 9.400 7 9.250 11 36.675 9
2019-01-11 St Jude Benefit Meet GymNasti 5B 7 Jr A 8.700 7T 9.200 12 9.250 5T 9.450 11 36.600 8
2018-12-07 St. Nick Invite 2018 GymNasti 6B 7 JrA 7.100 13 8.875 10T 9.125 6 8.750 12 33.850 13
2018-03-08 Level 4 & 5 State GymNasti All 4 Yh A 9.175 4 9.250 9T 9.775 1 9.450 3T 37.650 2
2018-02-23 Kinetic Classic GymNasti 6 4 Younger 9.000 29T 9.000 45T 9.475 5T 9.600 4 37.075 10
2018-02-17 Women's Midwest Open GymNasti 12 4 Jr B 9.375 1 9.575 2 9.725 1 9.200 2 37.875 1
2018-01-26 King Arthur Invitational GymNasti 2 4 Jr B 9.275 1 9.200 1 9.425 1 9.375 1 37.275 1
2018-01-12 St Jude Benefit Meet GymNasti 2A 4 JrC 8.675 2T 9.375 2 9.650 1 9.550 1 37.250 1
2017-12-08 St. Nick Invite GymNasti 7A 4 JrA 9.275 2 9.300 4T 9.625 3 9.525 2 37.725 1
2017-02-10 IGI Chicago Style Gymnastics Meet GymNasti 632L 4 JrA 8.600 11 8.850 11 8.850 17 9.100 6 35.400 10
2017-02-03 2017 Gateway Challenge GymNasti 6B 4 8 & under 8.725 1 7.375 3 8.850 2 9.200 1 34.150 2
2017-01-20 2017 Bravo Classic GymNasti 08B 4 6-8yrs 8.450 8 8.900 11 8.550 15 9.125 3T 35.025 10
2017-01-13 St Jude Benefit Meet GymNasti 3A 4 Jr A 8.425 3 8.650 6T 9.475 1 9.150 1 35.700 1
2016-12-09 St. Nick Invite GymNasti 7 4 JrA 8.350 13 8.700 9 9.375 5 8.925 8T 35.350 8
2016-03-04 2016 Illinois Level 3 State Championships GymNasti 3 Child-C 9.350 10 9.050 5 9.050 1 9.350 2 36.800 3
2016-02-19 Midwest Open Womens 2016 GymNasti 1A 3 6-7 9.450 5 9.450 1 9.450 1 9.450 1 37.800 1
2016-01-22 King Arthur Invitational GymNasti S13 3 Jr.A 9.300 3 8.400 8 9.375 2 8.750 7 35.825 5
2015-12-04 2015 Ultimate Wish Classic GymNasti 11B 3 All 9.100 23 8.325 60 8.575 54 9.400 8 35.400 43
Get your scores on
a t-shirt, pin, or hoodie

www.lazysuits.com